Time;durP1;ratioP1;P1;durP2;ratioP2;P2;SDS_P1;SDS_P2;PMS_P1;PMS_P2;Temp;Humidity;BMP_temperature;BMP_pressure;BME280_temperature;BME280_humidity;BME280_pressure;Samples;Min_cycle;Max_cycle;Signal;HPM_P1;HPM_P2
2021/11/08 00:02:50;;;;;;;8.30;4.50;;;;;;;6.52;80.17;100029.50;231071;1196;137325;-74
2021/11/08 00:08:01;;;;;;;8.60;4.80;;;;;;;6.45;80.35;100030.28;231253;1196;139397;-73
2021/11/08 00:13:06;;;;;;;8.30;4.40;;;;;;;6.40;80.66;100029.21;231628;1196;138286;-73
2021/11/08 00:18:29;;;;;;;8.20;4.80;;;;;;;6.35;80.87;100035.24;231778;1196;137872;-73
2021/11/08 00:23:31;;;;;;;9.60;4.60;;;;;;;6.33;81.23;100035.77;231165;1196;138517;-73
2021/11/08 00:28:33;;;;;;;10.40;5.90;;;;;;;6.37;80.97;100034.16;231016;1197;138244;-74
2021/11/08 00:33:34;;;;;;;9.20;5.00;;;;;;;6.39;81.39;100044.33;231628;1196;138389;-73
2021/11/08 00:38:36;;;;;;;8.60;5.00;;;;;;;6.37;82.16;100051.14;230512;1197;138490;-75
2021/11/08 00:43:45;;;;;;;6.90;4.40;;;;;;;6.43;82.29;100054.16;231134;1198;138032;-75
2021/11/08 00:48:54;;;;;;;7.90;4.80;;;;;;;6.43;82.08;100056.89;230607;1196;137891;-73
2021/11/08 00:53:55;;;;;;;6.00;4.30;;;;;;;6.44;82.20;100064.89;231733;1196;138389;-73
2021/11/08 00:58:57;;;;;;;6.50;4.30;;;;;;;6.45;81.95;100060.58;231378;1196;139250;-73
2021/11/08 01:03:58;;;;;;;8.80;4.40;;;;;;;6.47;81.81;100065.11;230929;1197;138475;-74
2021/11/08 01:09:00;;;;;;;6.00;4.20;;;;;;;6.44;82.15;100068.20;231694;1197;138800;-73
2021/11/08 01:14:02;;;;;;;7.60;4.20;;;;;;;6.47;81.58;100075.09;231779;1197;137857;-72
2021/11/08 01:19:11;;;;;;;5.40;4.10;;;;;;;6.54;81.26;100077.79;232705;1198;138161;-72
2021/11/08 01:24:13;;;;;;;7.40;4.30;;;;;;;6.53;81.46;100077.56;231742;1197;138017;-72
2021/11/08 01:29:16;;;;;;;6.50;4.40;;;;;;;6.46;81.95;100089.02;231075;1197;138146;-73
2021/11/08 01:34:18;;;;;;;6.60;3.70;;;;;;;6.46;82.06;100086.56;230543;1196;138322;-71
2021/11/08 01:39:25;;;;;;;6.40;4.30;;;;;;;6.42;82.45;100086.55;231312;1197;138113;-71
2021/11/08 01:44:28;;;;;;;8.00;4.30;;;;;;;6.32;83.36;100083.60;231862;1190;137802;-71
2021/11/08 01:49:30;;;;;;;4.30;3.90;;;;;;;6.33;83.68;100080.70;231409;1198;138819;-73
2021/11/08 01:54:32;;;;;;;7.40;5.30;;;;;;;6.35;83.90;100084.58;231055;1197;138395;-72
2021/11/08 01:59:37;;;;;;;5.90;3.80;;;;;;;6.40;83.77;100089.69;231001;1196;138161;-72
2021/11/08 02:04:42;;;;;;;6.00;4.00;;;;;;;6.43;83.66;100093.29;230759;1197;138732;-73
2021/11/08 02:09:49;;;;;;;7.00;4.60;;;;;;;6.44;83.61;100092.02;230745;1197;141123;-73
2021/11/08 02:14:51;;;;;;;6.80;4.70;;;;;;;6.49;83.38;100092.06;231218;1198;138962;-72
2021/11/08 02:19:57;;;;;;;7.00;4.50;;;;;;;6.47;83.70;100098.91;231246;1197;138773;-72
2021/11/08 02:24:58;;;;;;;6.90;4.90;;;;;;;6.44;84.03;100099.87;231313;1197;138406;-73
2021/11/08 02:30:00;;;;;;;6.80;5.00;;;;;;;6.46;83.75;100098.14;232160;1197;140470;-74
2021/11/08 02:35:08;;;;;;;6.60;4.70;;;;;;;6.44;83.60;100108.08;232263;1197;138766;-74
2021/11/08 02:40:20;;;;;;;7.30;5.30;;;;;;;6.47;83.43;100107.00;231346;1197;139647;-73
2021/11/08 02:45:27;;;;;;;10.80;5.50;;;;;;;6.49;83.65;100107.70;232085;1197;137882;-68
2021/11/08 02:50:32;;;;;;;6.50;4.70;;;;;;;6.47;83.51;100105.95;231859;1196;138374;-73
2021/11/08 02:55:44;;;;;;;7.10;4.10;;;;;;;6.43;83.68;100111.66;230402;1196;138687;-75
2021/11/08 03:00:47;;;;;;;5.90;4.50;;;;;;;6.44;83.73;100117.70;231466;1196;139335;-75
2021/11/08 03:05:51;;;;;;;5.60;4.70;;;;;;;6.51;83.36;100125.17;232430;1189;138126;-75
2021/11/08 03:10:56;;;;;;;7.70;5.20;;;;;;;6.51;83.38;100129.86;230498;1196;138458;-73
2021/11/08 03:16:06;;;;;;;5.50;4.40;;;;;;;6.55;83.21;100133.89;231488;1196;139197;-73
2021/11/08 03:21:16;;;;;;;5.70;5.10;;;;;;;6.58;82.99;100146.04;230847;1196;138614;-72
2021/11/08 03:31:28;;;;;;;5.50;4.20;;;;;;;6.60;82.94;100144.52;230853;1196;138631;-72
2021/11/08 03:36:30;;;;;;;7.30;4.80;;;;;;;6.63;82.72;100152.98;231929;1182;138469;-72
2021/11/08 03:41:37;;;;;;;7.20;4.90;;;;;;;6.64;82.69;100157.30;230735;1196;137629;-74
2021/11/08 03:46:42;;;;;;;8.20;4.80;;;;;;;6.64;83.00;100162.75;230954;1196;138372;-71
2021/11/08 03:51:44;;;;;;;5.70;4.40;;;;;;;6.60;83.44;100163.90;230891;1198;138343;-72
2021/11/08 03:56:45;;;;;;;7.90;5.20;;;;;;;6.56;83.79;100170.61;231299;1196;138183;-73
2021/11/08 04:01:49;;;;;;;7.30;4.70;;;;;;;6.53;84.06;100180.09;230610;1196;138609;-72
2021/11/08 04:06:51;;;;;;;5.70;4.70;;;;;;;6.58;83.79;100177.39;231701;1196;138987;-72
2021/11/08 04:11:54;;;;;;;5.90;5.10;;;;;;;6.60;83.39;100175.98;230543;1196;137763;-74
2021/11/08 04:16:56;;;;;;;7.90;5.10;;;;;;;6.59;83.51;100181.03;230995;1196;137926;-73
2021/11/08 04:22:04;;;;;;;5.40;4.30;;;;;;;6.65;83.05;100179.83;230755;1196;138657;-73
2021/11/08 04:27:13;;;;;;;5.70;5.10;;;;;;;6.65;82.37;100185.20;230955;1196;138526;-73
2021/11/08 04:32:17;;;;;;;8.40;5.40;;;;;;;6.67;82.50;100186.69;230897;1196;138422;-62
2021/11/08 05:40:32;;;;;;;6.00;4.70;;;;;;;6.59;81.14;100251.31;233086;1184;137844;-72
2021/11/08 05:50:54;;;;;;;4.70;4.20;;;;;;;6.57;81.22;100256.98;232919;1190;137959;-74
2021/11/08 06:50:56;;;;;;;8.50;5.00;;;;;;;6.53;83.50;100333.64;234116;1183;138243;-72
2021/11/08 07:06:46;;;;;;;7.70;4.10;;;;;;;6.79;81.51;100347.72;230684;1198;137956;-68
2021/11/08 07:17:12;;;;;;;8.50;4.70;;;;;;;6.83;81.58;100354.26;233861;1177;138282;-74
2021/11/08 07:22:14;;;;;;;3.10;2.40;;;;;;;6.76;82.87;100356.56;233093;1197;139080;-71
2021/11/08 07:27:15;;;;;;;8.20;4.10;;;;;;;6.68;83.88;100367.19;231917;1198;138957;-71
2021/11/08 07:32:18;;;;;;;8.80;4.60;;;;;;;6.62;85.29;100371.73;231269;1198;138323;-66
2021/11/08 07:42:42;;;;;;;6.60;3.80;;;;;;;6.59;86.77;100375.46;236217;1183;108916;-73
2021/11/08 07:47:44;;;;;;;7.30;5.10;;;;;;;6.47;87.58;100378.58;230805;1199;138284;-70
2021/11/08 07:52:49;;;;;;;8.00;4.30;;;;;;;6.46;87.96;100389.02;233939;1182;137680;-75
2021/11/08 07:58:14;;;;;;;;;;;;;;;6.44;88.06;100392.17;234320;1182;138659;-71
2021/11/08 08:03:25;;;;;;;4.10;3.20;;;;;;;6.50;87.80;100401.64;232878;1177;125671;-71
2021/11/08 08:13:51;;;;;;;6.90;5.60;;;;;;;6.70;87.18;100408.59;235010;1182;136295;-75
2021/11/08 08:18:58;;;;;;;6.40;4.50;;;;;;;6.71;87.16;100417.94;234203;1175;138671;-74
2021/11/08 08:24:04;;;;;;;9.50;5.20;;;;;;;6.77;87.09;100425.61;232950;1176;139124;-74
2021/11/08 08:29:07;;;;;;;11.20;6.00;;;;;;;6.75;87.05;100426.84;231729;1197;139213;-74
2021/11/08 08:34:13;;;;;;;8.80;5.50;;;;;;;6.74;87.37;100428.50;233535;1177;138579;-73
2021/11/08 08:39:15;;;;;;;6.60;5.00;;;;;;;6.75;87.22;100431.63;231552;1196;138379;-73
2021/11/08 08:44:17;;;;;;;6.40;5.10;;;;;;;6.74;87.31;100431.20;231456;1197;138792;-72
2021/11/08 08:54:40;;;;;;;6.90;5.20;;;;;;;6.81;87.56;100440.77;232991;1183;138419;-72
2021/11/08 09:04:53;;;;;;;8.50;5.20;;;;;;;6.92;87.66;100452.89;234800;1183;137738;-72
2021/11/08 09:09:55;;;;;;;7.20;4.90;;;;;;;6.90;87.43;100462.70;231874;1196;137796;-74
2021/11/08 09:14:59;;;;;;;5.10;4.60;;;;;;;6.90;87.73;100468.12;232273;1195;138177;-74
2021/11/08 09:20:04;;;;;;;6.30;5.30;;;;;;;6.76;88.70;100477.75;231996;1196;138682;-74
2021/11/08 09:25:06;;;;;;;4.70;4.30;;;;;;;6.70;88.99;100477.38;233930;1183;138417;-74
2021/11/08 09:35:44;;;;;;;9.10;5.50;;;;;;;6.72;89.57;100492.58;230332;1197;139232;-73
2021/11/08 09:40:46;;;;;;;4.90;4.30;;;;;;;6.73;89.73;100491.33;231077;1196;138078;-72
2021/11/08 09:45:48;;;;;;;4.90;4.40;;;;;;;6.72;89.98;100498.20;230916;1196;137501;-72
2021/11/08 09:56:07;;;;;;;5.60;4.80;;;;;;;6.73;90.11;100508.78;231403;1190;138773;-73
2021/11/08 10:01:12;;;;;;;6.10;4.60;;;;;;;6.83;90.04;100507.83;233258;1184;138113;-74
2021/11/08 10:06:14;;;;;;;4.20;3.80;;;;;;;6.89;89.22;100511.87;231876;1175;138552;-74
2021/11/08 10:11:20;;;;;;;4.30;3.70;;;;;;;6.98;87.98;100514.27;230792;1198;138377;-73
2021/11/08 10:16:29;;;;;;;4.80;3.70;;;;;;;7.08;87.01;100516.92;231075;1198;138635;-75
2021/11/08 10:21:34;;;;;;;4.10;3.70;;;;;;;7.19;86.62;100519.52;232560;1178;138117;-73
2021/11/08 10:26:37;;;;;;;3.70;3.40;;;;;;;7.16;86.36;100529.94;233069;1174;138672;-71
2021/11/08 10:42:33;;;;;;;8.00;5.00;;;;;;;7.11;87.32;100537.52;233441;1184;137808;-73
2021/11/08 10:48:20;;;;;;;3.80;3.40;;;;;;;7.16;87.81;100537.71;230971;1198;138780;-74
2021/11/08 10:53:30;;;;;;;5.70;3.80;;;;;;;7.30;87.63;100542.31;231230;1198;138078;-73
2021/11/08 11:03:52;;;;;;;5.00;4.50;;;;;;;7.35;87.12;100545.04;231678;1184;138689;-72
2021/11/08 11:09:38;;;;;;;3.70;3.30;;;;;;;7.11;89.07;100543.65;234361;1183;138205;-73
2021/11/08 11:15:23;;;;;;;4.20;3.70;;;;;;;7.02;90.48;100544.63;230427;1201;138958;-72
2021/11/08 11:20:48;;;;;;;7.40;6.80;;;;;;;6.98;91.41;100544.80;229796;1201;138393;-73
2021/11/08 11:26:03;;;;;;;5.40;4.90;;;;;;;7.07;90.93;100547.00;231516;1178;138203;-73
2021/11/08 11:41:28;;;;;;;6.40;5.60;;;;;;;7.26;89.65;100547.33;231706;1195;654043;31
2021/11/08 11:46:41;;;;;;;4.40;3.90;;;;;;;7.34;88.29;100548.75;232917;1189;137294;-68
2021/11/08 11:52:00;;;;;;;4.50;4.10;;;;;;;7.32;88.37;100559.11;232358;1190;137793;-73
2021/11/08 11:57:03;;;;;;;4.90;4.40;;;;;;;7.37;88.25;100564.29;231047;1202;138071;-72
2021/11/08 12:02:06;;;;;;;7.80;6.00;;;;;;;7.43;87.76;100569.80;230006;1202;138355;-73
2021/11/08 12:12:24;;;;;;;5.90;4.90;;;;;;;7.49;86.87;100580.48;235571;1183;137554;-74
2021/11/08 12:17:36;;;;;;;4.70;4.30;;;;;;;7.47;86.96;100576.04;236226;1201;138717;-75
2021/11/08 12:22:39;;;;;;;5.70;5.00;;;;;;;7.51;87.13;100581.48;236116;1201;138260;-74
2021/11/08 12:27:49;;;;;;;5.90;5.30;;;;;;;7.44;88.06;100582.63;235984;1201;138568;-73
2021/11/08 12:33:01;;;;;;;5.80;4.60;;;;;;;7.40;88.33;100583.81;235772;1201;138299;-73
2021/11/08 12:38:21;;;;;;;5.90;5.20;;;;;;;7.37;88.75;100586.56;235990;1199;137643;-74
2021/11/08 12:43:28;;;;;;;5.90;5.40;;;;;;;7.38;88.37;100593.27;236044;1198;137462;-74
2021/11/08 12:48:36;;;;;;;6.20;5.40;;;;;;;7.33;89.06;100592.48;236202;1177;137445;-75
2021/11/08 12:53:45;;;;;;;5.70;5.20;;;;;;;7.36;88.96;100594.15;235965;1178;137871;-73
2021/11/08 12:58:51;;;;;;;8.90;8.10;;;;;;;7.38;88.82;100593.19;236224;1199;137821;-74
2021/11/08 13:04:07;;;;;;;8.60;7.70;;;;;;;7.36;89.25;100594.33;236355;1185;137528;-72
2021/11/08 13:09:23;;;;;;;7.50;5.30;;;;;;;7.25;89.71;100606.84;236026;1187;137994;-72
2021/11/08 13:14:29;;;;;;;5.10;4.60;;;;;;;7.24;90.58;100613.04;235997;1180;138576;-74
2021/11/08 13:19:31;;;;;;;5.50;5.10;;;;;;;7.26;90.37;100619.59;236185;1201;138114;-74
2021/11/08 13:24:33;;;;;;;6.10;4.50;;;;;;;7.29;90.54;100617.95;236056;1201;138463;-72
2021/11/08 13:29:38;;;;;;;6.60;6.00;;;;;;;7.21;90.55;100624.35;236181;1201;137911;-73
2021/11/08 13:34:51;;;;;;;6.20;5.60;;;;;;;7.17;90.79;100631.32;235932;1184;138583;-73
2021/11/08 13:39:56;;;;;;;6.60;5.50;;;;;;;7.15;91.02;100629.89;236243;1201;138338;-73
2021/11/08 13:45:01;;;;;;;5.90;5.40;;;;;;;7.22;90.91;100633.39;236211;1193;138283;-74
2021/11/08 13:50:16;;;;;;;5.20;4.80;;;;;;;7.22;90.60;100635.45;236099;1181;138118;-71
2021/11/08 13:55:25;;;;;;;6.00;5.50;;;;;;;7.26;90.45;100642.49;235913;1200;138020;-73
2021/11/08 14:00:27;;;;;;;5.40;4.70;;;;;;;7.29;90.39;100644.92;236320;1185;138296;-73
2021/11/08 14:16:03;;;;;;;10.10;8.90;;;;;;;7.37;89.81;100638.44;236094;1186;137763;-75
2021/11/08 14:21:15;;;;;;;7.00;6.20;;;;;;;7.38;89.52;100646.11;236292;1199;137934;-74
2021/11/08 14:26:22;;;;;;;7.80;6.90;;;;;;;7.33;89.86;100650.39;235914;1182;139956;-73
2021/11/08 14:31:30;;;;;;;8.20;7.00;;;;;;;7.27;90.33;100654.17;236185;1200;138566;-72
2021/11/08 14:36:40;;;;;;;9.00;7.00;;;;;;;7.25;90.33;100656.25;236329;1200;138113;-73
2021/11/08 14:47:34;;;;;;;8.30;7.50;;;;;;;7.28;91.45;100662.13;236002;1193;138265;-78
2021/11/08 14:52:49;;;;;;;8.30;7.40;;;;;;;7.14;92.45;100671.17;236211;1186;138802;-73
2021/11/08 14:57:57;;;;;;;7.90;7.00;;;;;;;7.07;93.00;100673.81;236104;1180;138940;-74
2021/11/08 15:03:12;;;;;;;9.10;7.90;;;;;;;7.15;93.25;100684.03;236322;1200;138127;-73
2021/11/08 15:08:21;;;;;;;8.00;7.30;;;;;;;7.25;93.17;100686.60;236121;1199;138052;-74
2021/11/08 15:13:27;;;;;;;12.00;10.40;;;;;;;7.24;93.26;100690.38;236236;1200;138171;-73
2021/11/08 15:18:32;;;;;;;11.60;10.40;;;;;;;7.20;93.16;100695.26;236160;1200;137759;-73
2021/11/08 15:24:05;;;;;;;10.90;9.50;;;;;;;7.24;93.01;100700.00;236161;1192;138847;-73
2021/11/08 15:33:44;;;;;;;12.60;11.30;;;;;;;7.35;92.50;100709.60;236684;1195;674112;-75
2021/11/08 15:38:52;;;;;;;11.10;10.00;;;;;;;7.46;92.23;100715.52;238557;1190;137603;-74
2021/11/08 15:43:54;;;;;;;11.80;10.60;;;;;;;7.46;91.94;100725.34;238723;1189;137583;-73
2021/11/08 15:48:56;;;;;;;10.80;9.70;;;;;;;7.42;92.18;100733.27;238668;1189;138098;-73
2021/11/08 15:53:59;;;;;;;10.10;9.10;;;;;;;7.44;91.71;100741.45;238755;1188;138493;-73
2021/11/08 15:59:05;;;;;;;9.10;8.20;;;;;;;7.33;91.73;100747.46;239205;1189;137759;-75
2021/11/08 16:04:11;;;;;;;10.50;7.10;;;;;;;7.25;91.08;100751.82;239368;1188;136989;-75
2021/11/08 16:09:16;;;;;;;8.80;7.00;;;;;;;7.20;90.66;100755.50;239221;1189;137906;-74
2021/11/08 16:14:23;;;;;;;8.10;6.90;;;;;;;7.24;90.16;100759.06;238867;1189;137812;-73
2021/11/08 16:19:24;;;;;;;7.60;6.80;;;;;;;7.28;89.54;100766.73;238077;1188;137320;-75
2021/11/08 16:24:26;;;;;;;8.30;6.90;;;;;;;7.21;89.68;100777.67;238804;1188;137867;-74
2021/11/08 16:29:28;;;;;;;8.40;7.30;;;;;;;7.12;89.96;100782.89;238736;1188;137707;-74
2021/11/08 16:34:29;;;;;;;8.30;7.50;;;;;;;7.16;89.82;100783.71;239260;1186;137958;-75
2021/11/08 16:39:31;;;;;;;9.30;8.40;;;;;;;7.23;89.20;100789.15;238923;1187;137791;-74
2021/11/08 16:44:36;;;;;;;10.60;9.50;;;;;;;7.20;89.12;100791.14;238646;1187;137531;-74
2021/11/08 16:49:43;;;;;;;10.50;9.40;;;;;;;7.16;88.87;100795.77;239359;1188;137810;-76
2021/11/08 16:54:49;;;;;;;10.40;9.10;;;;;;;7.15;88.79;100803.61;238619;1187;137939;-74
2021/11/08 16:59:56;;;;;;;9.90;8.90;;;;;;;7.14;88.79;100801.32;239155;1184;137907;-74
2021/11/08 17:04:59;;;;;;;12.90;9.70;;;;;;;7.14;88.55;100808.56;239549;1177;137516;-76
2021/11/08 17:15:03;;;;;;;13.00;10.20;;;;;;;7.18;88.49;100820.34;239410;1184;138773;-74
2021/11/08 17:20:09;;;;;;;12.00;9.90;;;;;;;7.17;88.36;100823.20;239199;1185;140836;-74
2021/11/08 17:25:12;;;;;;;22.70;18.70;;;;;;;7.11;88.67;100827.70;239263;1184;137935;-75
2021/11/08 17:30:14;;;;;;;13.30;9.70;;;;;;;7.08;89.13;100841.48;239339;1185;138537;-76
2021/11/08 17:35:16;;;;;;;12.80;11.20;;;;;;;7.10;89.23;100843.21;239339;1184;138066;-74
2021/11/08 17:40:18;;;;;;;14.80;11.70;;;;;;;7.10;89.26;100847.91;239272;1184;138173;-74
2021/11/08 17:45:21;;;;;;;19.60;17.20;;;;;;;7.04;89.48;100848.09;239457;1185;137991;-76
2021/11/08 17:50:24;;;;;;;11.90;9.40;;;;;;;7.00;90.08;100855.25;239453;1185;139147;-73
2021/11/08 17:55:29;;;;;;;12.30;10.70;;;;;;;6.98;90.17;100857.11;239994;1182;138440;-73
2021/11/08 18:00:33;;;;;;;12.60;9.90;;;;;;;7.02;90.03;100859.38;239766;1182;138504;-75
2021/11/08 18:05:38;;;;;;;13.30;10.80;;;;;;;7.06;90.14;100863.48;239812;1183;140140;-74
2021/11/08 18:10:40;;;;;;;14.30;11.10;;;;;;;7.08;89.89;100866.51;239994;1182;137735;-75
2021/11/08 18:15:45;;;;;;;11.60;9.80;;;;;;;7.03;90.08;100874.27;239952;1182;137508;-70
2021/11/08 18:20:55;;;;;;;13.90;11.20;;;;;;;6.97;90.40;100875.23;239641;1182;138421;-75
2021/11/08 18:31:06;;;;;;;15.10;11.00;;;;;;;7.07;90.28;100887.39;239656;1182;139405;-71
2021/11/08 18:36:13;;;;;;;15.20;12.80;;;;;;;7.01;90.49;100888.41;239598;1182;138054;-75
2021/11/08 18:41:17;;;;;;;13.50;11.40;;;;;;;7.07;90.37;100897.62;239814;1182;137379;-72
2021/11/08 18:46:26;;;;;;;14.30;11.60;;;;;;;7.04;90.33;100902.20;239611;1183;138329;-72
2021/11/08 18:51:28;;;;;;;12.30;9.70;;;;;;;7.07;90.17;100906.36;239796;1182;138258;-74
2021/11/08 18:56:32;;;;;;;17.10;12.30;;;;;;;7.01;90.46;100913.48;239600;1182;137783;-72
2021/11/08 19:01:44;;;;;;;12.90;10.40;;;;;;;7.00;90.98;100919.85;239557;1183;139169;-73
2021/11/08 19:07:02;;;;;;;11.90;10.40;;;;;;;6.99;91.39;100922.72;239569;1183;138658;-73
2021/11/08 19:12:04;;;;;;;9.90;7.60;;;;;;;7.09;91.73;100940.84;239895;1182;138310;-72
2021/11/08 19:17:08;;;;;;;8.20;6.00;;;;;;;7.13;90.86;100954.45;239844;1182;138147;-69
2021/11/08 19:22:10;;;;;;;7.10;5.80;;;;;;;7.03;90.32;100958.35;239857;1183;137070;-73
2021/11/08 19:27:11;;;;;;;6.50;5.60;;;;;;;6.91;90.16;100963.95;239848;1177;138062;-73
2021/11/08 19:32:21;;;;;;;6.30;5.10;;;;;;;6.90;90.27;100970.87;239789;1182;138309;-74
2021/11/08 19:42:43;;;;;;;7.10;5.00;;;;;;;6.82;89.92;100983.89;239517;1183;138099;-74
2021/11/08 19:47:48;;;;;;;6.30;4.90;;;;;;;6.79;89.34;100992.39;239554;1176;139445;-75
2021/11/08 19:52:53;;;;;;;6.40;4.30;;;;;;;6.72;89.34;101003.92;239539;1183;137726;-74
2021/11/08 19:57:55;;;;;;;6.50;5.20;;;;;;;6.76;89.47;101013.61;239622;1183;137678;-73
2021/11/08 20:03:01;;;;;;;6.50;5.80;;;;;;;6.77;89.35;101026.52;239499;1183;137589;-73
2021/11/08 20:08:08;;;;;;;8.50;7.30;;;;;;;6.75;89.35;101032.23;239564;1183;138346;-69
2021/11/08 20:18:33;;;;;;;5.20;4.40;;;;;;;6.73;89.69;101051.89;239450;1183;138019;-72
2021/11/08 20:23:36;;;;;;;6.80;5.80;;;;;;;6.73;89.48;101055.16;239646;1183;137859;-74
2021/11/08 20:28:47;;;;;;;9.10;7.80;;;;;;;6.73;89.57;101063.22;239728;1183;138357;-73
2021/11/08 20:34:12;;;;;;;11.40;8.40;;;;;;;6.69;89.75;101068.45;239390;1183;138565;-74
2021/11/08 21:00:12;;;;;;;9.20;7.10;;;;;;;6.62;89.52;101085.89;239629;1183;138344;-75
2021/11/08 21:05:31;;;;;;;8.50;6.60;;;;;;;6.64;89.26;101087.34;239512;1183;138338;-74
2021/11/08 21:16:02;;;;;;;8.30;5.70;;;;;;;6.59;89.31;101091.73;239544;1183;137604;-73
2021/11/08 21:21:04;;;;;;;6.60;5.20;;;;;;;6.54;89.61;101103.80;239481;1183;137316;-73
2021/11/08 21:26:16;;;;;;;6.20;4.70;;;;;;;6.49;89.59;101110.98;239783;1183;138317;-73
2021/11/08 21:41:43;;;;;;;10.80;8.60;;;;;;;6.57;89.34;101115.16;239683;1183;137812;-74
2021/11/08 21:46:47;;;;;;;12.90;9.90;;;;;;;6.54;89.57;101122.39;239743;1183;138014;-77
2021/11/08 21:51:49;;;;;;;12.70;10.00;;;;;;;6.49;90.06;101125.37;239432;1183;138306;-73
2021/11/08 21:56:50;;;;;;;11.40;9.70;;;;;;;6.49;89.97;101127.10;239794;1183;138974;-72
2021/11/08 22:01:52;;;;;;;11.70;10.00;;;;;;;6.50;89.73;101136.66;239722;1182;137759;-75
2021/11/08 22:06:57;;;;;;;14.30;9.80;;;;;;;6.47;89.71;101148.95;239695;1183;138118;-73
2021/11/08 22:11:58;;;;;;;10.90;8.90;;;;;;;6.43;90.06;101167.08;239794;1183;137838;-73
2021/11/08 22:17:01;;;;;;;9.30;6.80;;;;;;;6.44;90.18;101176.14;239657;1183;139027;-73
2021/11/08 22:22:03;;;;;;;8.70;7.20;;;;;;;6.49;89.82;101179.27;239575;1183;138398;-72
2021/11/08 22:27:05;;;;;;;9.80;7.60;;;;;;;6.52;89.86;101187.29;239889;1183;138237;-75
2021/11/08 22:32:07;;;;;;;10.90;8.60;;;;;;;6.50;89.91;101196.35;239933;1183;138081;-72
2021/11/08 22:37:09;;;;;;;11.50;7.90;;;;;;;6.49;89.82;101201.88;239858;1183;137736;-73
2021/11/08 22:42:11;;;;;;;11.70;8.20;;;;;;;6.45;89.59;101207.58;240067;1183;138628;-75
2021/11/08 22:47:13;;;;;;;11.00;9.10;;;;;;;6.42;89.21;101211.80;239909;1183;138852;-75
2021/11/08 22:52:14;;;;;;;12.10;9.90;;;;;;;6.41;88.51;101212.95;239625;1183;137598;-72
2021/11/08 22:57:16;;;;;;;9.80;7.90;;;;;;;6.32;87.95;101217.41;239507;1182;137729;-61
2021/11/08 23:02:18;;;;;;;8.70;7.50;;;;;;;6.27;87.72;101226.33;239170;1181;137706;-73
2021/11/08 23:07:19;;;;;;;11.00;6.40;;;;;;;6.26;87.81;101232.52;239623;1182;137713;-68
2021/11/08 23:26:55;;;;;;;7.10;5.60;;;;;;;6.16;87.36;101268.17;205783;1350;138838;-73
2021/11/08 23:31:57;;;;;;;7.10;6.00;;;;;;;6.21;86.99;101267.17;206126;1328;5004769;-73
2021/11/08 23:42:05;;;;;;;8.40;5.50;;;;;;;6.11;86.94;101283.55;207553;1337;137405;-74
2021/11/08 23:47:07;;;;;;;6.20;5.10;;;;;;;6.06;87.04;101284.60;207078;1338;137629;-74
2021/11/08 23:52:10;;;;;;;7.50;5.20;;;;;;;6.04;87.15;101294.86;207701;1337;138531;-73
2021/11/08 23:57:12;;;;;;;7.30;5.40;;;;;;;6.08;87.25;101298.13;209123;1327;138807;-75
